sensor_id;sensor_type;location;lat;lon;timestamp;temperature;humidity
23122;DHT22;11730;51.248;22.534;2024-03-22T00:01:52;5.20;1.00
23122;DHT22;11730;51.248;22.534;2024-03-22T00:04:19;5.60;1.00
23122;DHT22;11730;51.248;22.534;2024-03-22T00:06:47;5.20;1.00
23122;DHT22;11730;51.248;22.534;2024-03-22T00:09:14;5.30;1.00
23122;DHT22;11730;51.248;22.534;2024-03-22T00:11:41;5.20;1.00
23122;DHT22;11730;51.248;22.534;2024-03-22T00:14:08;5.10;1.00
23122;DHT22;11730;51.248;22.534;2024-03-22T00:19:01;5.30;1.00
23122;DHT22;11730;51.248;22.534;2024-03-22T00:21:27;5.30;1.00
23122;DHT22;11730;51.248;22.534;2024-03-22T00:28:47;5.00;1.00
23122;DHT22;11730;51.248;22.534;2024-03-22T00:33:39;5.20;1.00
23122;DHT22;11730;51.248;22.534;2024-03-22T00:45:51;5.00;1.00
23122;DHT22;11730;51.248;22.534;2024-03-22T00:58:03;4.90;1.00
23122;DHT22;11730;51.248;22.534;2024-03-22T01:00:29;5.00;1.00
23122;DHT22;11730;51.248;22.534;2024-03-22T01:10:14;5.10;1.00
23122;DHT22;11730;51.248;22.534;2024-03-22T01:15:07;5.00;1.00
23122;DHT22;11730;51.248;22.534;2024-03-22T01:29:47;5.00;1.00
23122;DHT22;11730;51.248;22.534;2024-03-22T01:32:13;5.20;1.00
23122;DHT22;11730;51.248;22.534;2024-03-22T01:34:39;5.30;1.00
23122;DHT22;11730;51.248;22.534;2024-03-22T01:39:32;4.90;1.00
23122;DHT22;11730;51.248;22.534;2024-03-22T01:44:31;5.40;1.00
23122;DHT22;11730;51.248;22.534;2024-03-22T01:49:28;5.20;1.00
23122;DHT22;11730;51.248;22.534;2024-03-22T01:51:54;5.00;1.00
23122;DHT22;11730;51.248;22.534;2024-03-22T01:54:21;6.10;1.00
23122;DHT22;11730;51.248;22.534;2024-03-22T01:56:47;5.30;1.00
23122;DHT22;11730;51.248;22.534;2024-03-22T02:01:40;5.20;1.00
23122;DHT22;11730;51.248;22.534;2024-03-22T02:04:06;5.40;1.00
23122;DHT22;11730;51.248;22.534;2024-03-22T02:06:32;5.20;1.00
23122;DHT22;11730;51.248;22.534;2024-03-22T02:08:59;5.30;1.00
23122;DHT22;11730;51.248;22.534;2024-03-22T02:11:26;5.20;1.00
23122;DHT22;11730;51.248;22.534;2024-03-22T02:13:52;5.30;1.00
23122;DHT22;11730;51.248;22.534;2024-03-22T02:18:44;4.70;2.00
23122;DHT22;11730;51.248;22.534;2024-03-22T02:21:10;5.00;4.90
23122;DHT22;11730;51.248;22.534;2024-03-22T02:23:38;5.00;3.70
23122;DHT22;11730;51.248;22.534;2024-03-22T02:26:05;5.10;1.00
23122;DHT22;11730;51.248;22.534;2024-03-22T02:28:32;5.10;1.00
23122;DHT22;11730;51.248;22.534;2024-03-22T02:30:59;4.80;2.40
23122;DHT22;11730;51.248;22.534;2024-03-22T02:38:19;5.30;1.00
23122;DHT22;11730;51.248;22.534;2024-03-22T02:40:46;5.40;1.00
23122;DHT22;11730;51.248;22.534;2024-03-22T02:43:12;5.50;1.00
23122;DHT22;11730;51.248;22.534;2024-03-22T02:45:38;5.00;1.00
23122;DHT22;11730;51.248;22.534;2024-03-22T02:50:38;5.40;1.00
23122;DHT22;11730;51.248;22.534;2024-03-22T02:53:04;5.10;1.00
23122;DHT22;11730;51.248;22.534;2024-03-22T02:55:36;5.00;1.00
23122;DHT22;11730;51.248;22.534;2024-03-22T03:10:16;4.90;1.00
23122;DHT22;11730;51.248;22.534;2024-03-22T03:15:09;5.00;1.00
23122;DHT22;11730;51.248;22.534;2024-03-22T03:17:35;4.90;1.00
23122;DHT22;11730;51.248;22.534;2024-03-22T03:34:38;4.90;3.40
23122;DHT22;11730;51.248;22.534;2024-03-22T03:39:31;5.10;1.70
23122;DHT22;11730;51.248;22.534;2024-03-22T03:44:23;5.20;1.00
23122;DHT22;11730;51.248;22.534;2024-03-22T03:51:42;5.20;4.50
23122;DHT22;11730;51.248;22.534;2024-03-22T03:56:34;5.30;1.00
23122;DHT22;11730;51.248;22.534;2024-03-22T03:59:00;5.20;3.00
23122;DHT22;11730;51.248;22.534;2024-03-22T04:06:18;5.20;8.20
23122;DHT22;11730;51.248;22.534;2024-03-22T04:11:10;5.50;13.60
23122;DHT22;11730;51.248;22.534;2024-03-22T04:20:58;5.40;18.30
23122;DHT22;11730;51.248;22.534;2024-03-22T04:25:55;5.60;20.30
23122;DHT22;11730;51.248;22.534;2024-03-22T04:28:22;5.60;23.30
23122;DHT22;11730;51.248;22.534;2024-03-22T04:31:14;5.60;17.40
23122;DHT22;11730;51.248;22.534;2024-03-22T04:33:41;5.40;12.90
23122;DHT22;11730;51.248;22.534;2024-03-22T04:36:07;5.60;14.30
23122;DHT22;11730;51.248;22.534;2024-03-22T04:38:36;5.40;14.60
23122;DHT22;11730;51.248;22.534;2024-03-22T04:41:02;5.80;5.70
23122;DHT22;11730;51.248;22.534;2024-03-22T04:45:54;5.50;11.60
23122;DHT22;11730;51.248;22.534;2024-03-22T04:48:21;5.70;8.70
23122;DHT22;11730;51.248;22.534;2024-03-22T04:50:52;5.70;16.40
23122;DHT22;11730;51.248;22.534;2024-03-22T04:53:19;5.80;14.80
23122;DHT22;11730;51.248;22.534;2024-03-22T04:55:46;5.60;24.00
23122;DHT22;11730;51.248;22.534;2024-03-22T04:58:14;5.60;27.50
23122;DHT22;11730;51.248;22.534;2024-03-22T05:00:42;5.80;21.80
23122;DHT22;11730;51.248;22.534;2024-03-22T05:08:02;5.90;11.90
23122;DHT22;11730;51.248;22.534;2024-03-22T05:10:29;5.90;17.70
23122;DHT22;11730;51.248;22.534;2024-03-22T05:12:56;6.10;22.10
23122;DHT22;11730;51.248;22.534;2024-03-22T05:17:48;6.10;23.70
23122;DHT22;11730;51.248;22.534;2024-03-22T05:20:15;5.90;22.10
23122;DHT22;11730;51.248;22.534;2024-03-22T05:25:08;6.00;27.30
23122;DHT22;11730;51.248;22.534;2024-03-22T05:44:44;6.40;24.30
23122;DHT22;11730;51.248;22.534;2024-03-22T05:47:10;6.60;16.40
23122;DHT22;11730;51.248;22.534;2024-03-22T05:56:56;6.60;1.00
23122;DHT22;11730;51.248;22.534;2024-03-22T05:59:22;6.70;1.00
23122;DHT22;11730;51.248;22.534;2024-03-22T06:11:37;6.80;1.00
23122;DHT22;11730;51.248;22.534;2024-03-22T06:21:22;6.90;1.00
23122;DHT22;11730;51.248;22.534;2024-03-22T06:23:51;6.90;1.00
23122;DHT22;11730;51.248;22.534;2024-03-22T06:28:44;7.10;1.00
23122;DHT22;11730;51.248;22.534;2024-03-22T06:38:29;7.20;1.00
23122;DHT22;11730;51.248;22.534;2024-03-22T06:45:48;7.20;1.00
23122;DHT22;11730;51.248;22.534;2024-03-22T06:50:41;7.30;1.00
23122;DHT22;11730;51.248;22.534;2024-03-22T07:00:28;8.10;1.00
23122;DHT22;11730;51.248;22.534;2024-03-22T07:02:54;7.20;1.00
23122;DHT22;11730;51.248;22.534;2024-03-22T07:15:09;7.50;1.00
23122;DHT22;11730;51.248;22.534;2024-03-22T07:17:35;7.20;1.00
23122;DHT22;11730;51.248;22.534;2024-03-22T07:22:28;7.40;1.00
23122;DHT22;11730;51.248;22.534;2024-03-22T07:24:54;7.70;1.00
23122;DHT22;11730;51.248;22.534;2024-03-22T07:29:47;7.30;1.00
23122;DHT22;11730;51.248;22.534;2024-03-22T07:37:06;7.90;1.00
23122;DHT22;11730;51.248;22.534;2024-03-22T07:39:32;7.90;1.00
23122;DHT22;11730;51.248;22.534;2024-03-22T07:44:24;8.00;1.00
23122;DHT22;11730;51.248;22.534;2024-03-22T07:46:52;8.00;1.00
23122;DHT22;11730;51.248;22.534;2024-03-22T07:51:44;8.00;1.00
23122;DHT22;11730;51.248;22.534;2024-03-22T07:54:10;8.00;1.00
23122;DHT22;11730;51.248;22.534;2024-03-22T07:56:36;8.00;1.00
23122;DHT22;11730;51.248;22.534;2024-03-22T08:01:28;7.70;1.00
23122;DHT22;11730;51.248;22.534;2024-03-22T08:03:54;8.10;1.00
23122;DHT22;11730;51.248;22.534;2024-03-22T08:06:20;8.10;1.00
23122;DHT22;11730;51.248;22.534;2024-03-22T08:08:47;7.90;1.00
23122;DHT22;11730;51.248;22.534;2024-03-22T08:16:05;8.20;1.00
23122;DHT22;11730;51.248;22.534;2024-03-22T08:21:01;8.80;1.00
23122;DHT22;11730;51.248;22.534;2024-03-22T08:30:49;8.30;1.00
23122;DHT22;11730;51.248;22.534;2024-03-22T08:35:41;8.40;1.00
23122;DHT22;11730;51.248;22.534;2024-03-22T08:38:07;8.50;1.00
23122;DHT22;11730;51.248;22.534;2024-03-22T08:40:38;8.50;1.00
23122;DHT22;11730;51.248;22.534;2024-03-22T08:43:06;8.50;1.00
23122;DHT22;11730;51.248;22.534;2024-03-22T08:50:26;8.50;1.00
23122;DHT22;11730;51.248;22.534;2024-03-22T09:00:11;8.50;1.00
23122;DHT22;11730;51.248;22.534;2024-03-22T09:02:37;8.40;1.00
23122;DHT22;11730;51.248;22.534;2024-03-22T09:05:07;8.30;1.00
23122;DHT22;11730;51.248;22.534;2024-03-22T09:10:00;8.40;1.00
23122;DHT22;11730;51.248;22.534;2024-03-22T09:14:53;8.10;5.20
23122;DHT22;11730;51.248;22.534;2024-03-22T09:27:04;8.30;6.70
23122;DHT22;11730;51.248;22.534;2024-03-22T09:29:35;8.30;9.30
23122;DHT22;11730;51.248;22.534;2024-03-22T09:32:02;8.30;9.80
23122;DHT22;11730;51.248;22.534;2024-03-22T09:36:56;8.30;8.40
23122;DHT22;11730;51.248;22.534;2024-03-22T09:41:50;9.00;6.10
23122;DHT22;11730;51.248;22.534;2024-03-22T09:44:18;8.40;5.70
23122;DHT22;11730;51.248;22.534;2024-03-22T09:46:47;8.20;2.70
23122;DHT22;11730;51.248;22.534;2024-03-22T09:49:14;8.40;1.10
23122;DHT22;11730;51.248;22.534;2024-03-22T09:51:41;8.60;1.00
23122;DHT22;11730;51.248;22.534;2024-03-22T09:54:09;8.70;1.00
23122;DHT22;11730;51.248;22.534;2024-03-22T09:56:38;8.60;1.00
23122;DHT22;11730;51.248;22.534;2024-03-22T09:59:06;8.30;1.00
23122;DHT22;11730;51.248;22.534;2024-03-22T10:01:35;8.80;1.00
23122;DHT22;11730;51.248;22.534;2024-03-22T10:04:01;9.00;1.00
23122;DHT22;11730;51.248;22.534;2024-03-22T10:08:53;10.40;1.00
23122;DHT22;11730;51.248;22.534;2024-03-22T10:13:45;11.90;1.00
23122;DHT22;11730;51.248;22.534;2024-03-22T10:16:12;11.90;1.00
23122;DHT22;11730;51.248;22.534;2024-03-22T10:18:38;11.60;1.00
23122;DHT22;11730;51.248;22.534;2024-03-22T10:21:05;11.50;1.00
23122;DHT22;11730;51.248;22.534;2024-03-22T10:23:31;11.30;1.00
23122;DHT22;11730;51.248;22.534;2024-03-22T10:25:58;11.00;1.00
23122;DHT22;11730;51.248;22.534;2024-03-22T10:28:28;10.60;1.00
23122;DHT22;11730;51.248;22.534;2024-03-22T10:33:21;10.20;1.00
23122;DHT22;11730;51.248;22.534;2024-03-22T10:35:53;10.20;1.00
23122;DHT22;11730;51.248;22.534;2024-03-22T10:38:20;10.20;1.00
23122;DHT22;11730;51.248;22.534;2024-03-22T10:40:47;10.30;1.00
23122;DHT22;11730;51.248;22.534;2024-03-22T10:43:17;10.30;1.00
23122;DHT22;11730;51.248;22.534;2024-03-22T10:45:47;10.30;1.00
23122;DHT22;11730;51.248;22.534;2024-03-22T10:48:17;10.20;1.00
23122;DHT22;11730;51.248;22.534;2024-03-22T10:50:43;10.20;1.00
23122;DHT22;11730;51.248;22.534;2024-03-22T10:53:15;10.20;1.00
23122;DHT22;11730;51.248;22.534;2024-03-22T10:55:47;10.30;1.00
23122;DHT22;11730;51.248;22.534;2024-03-22T10:58:20;10.40;1.00
23122;DHT22;11730;51.248;22.534;2024-03-22T11:00:47;10.40;1.00
23122;DHT22;11730;51.248;22.534;2024-03-22T11:03:20;10.40;1.00
23122;DHT22;11730;51.248;22.534;2024-03-22T11:05:50;10.40;1.00
23122;DHT22;11730;51.248;22.534;2024-03-22T11:08:31;10.40;1.00
23122;DHT22;11730;51.248;22.534;2024-03-22T11:10:57;10.50;1.00
23122;DHT22;11730;51.248;22.534;2024-03-22T11:13:23;10.40;1.00
23122;DHT22;11730;51.248;22.534;2024-03-22T11:15:49;10.40;1.00
23122;DHT22;11730;51.248;22.534;2024-03-22T11:18:16;10.40;1.00
23122;DHT22;11730;51.248;22.534;2024-03-22T11:20:43;10.50;1.00
23122;DHT22;11730;51.248;22.534;2024-03-22T11:23:10;10.50;1.00
23122;DHT22;11730;51.248;22.534;2024-03-22T11:25:36;10.50;1.00
23122;DHT22;11730;51.248;22.534;2024-03-22T11:28:03;10.30;1.00
23122;DHT22;11730;51.248;22.534;2024-03-22T11:30:30;10.20;1.00
23122;DHT22;11730;51.248;22.534;2024-03-22T11:32:57;10.10;1.00
23122;DHT22;11730;51.248;22.534;2024-03-22T11:35:23;10.00;1.00
23122;DHT22;11730;51.248;22.534;2024-03-22T11:37:50;9.90;1.00
23122;DHT22;11730;51.248;22.534;2024-03-22T11:40:17;9.80;1.00
23122;DHT22;11730;51.248;22.534;2024-03-22T11:42:49;9.90;1.00
23122;DHT22;11730;51.248;22.534;2024-03-22T11:45:17;10.00;1.00
23122;DHT22;11730;51.248;22.534;2024-03-22T11:47:47;10.20;1.00
23122;DHT22;11730;51.248;22.534;2024-03-22T11:50:14;10.20;1.00
23122;DHT22;11730;51.248;22.534;2024-03-22T11:52:41;10.10;1.00
23122;DHT22;11730;51.248;22.534;2024-03-22T11:55:07;10.30;1.00
23122;DHT22;11730;51.248;22.534;2024-03-22T11:57:33;10.40;1.00
23122;DHT22;11730;51.248;22.534;2024-03-22T12:00:00;10.50;1.00
23122;DHT22;11730;51.248;22.534;2024-03-22T12:02:27;10.50;1.00
23122;DHT22;11730;51.248;22.534;2024-03-22T12:04:54;10.30;1.00
23122;DHT22;11730;51.248;22.534;2024-03-22T12:07:20;10.30;1.00
23122;DHT22;11730;51.248;22.534;2024-03-22T12:09:46;10.20;1.00
23122;DHT22;11730;51.248;22.534;2024-03-22T12:12:13;10.10;1.00
23122;DHT22;11730;51.248;22.534;2024-03-22T12:14:39;10.20;1.00
23122;DHT22;11730;51.248;22.534;2024-03-22T12:17:06;10.30;1.00
23122;DHT22;11730;51.248;22.534;2024-03-22T12:19:33;10.30;1.00
23122;DHT22;11730;51.248;22.534;2024-03-22T12:21:59;10.60;1.00
23122;DHT22;11730;51.248;22.534;2024-03-22T12:24:27;10.50;1.00
23122;DHT22;11730;51.248;22.534;2024-03-22T12:26:53;10.60;1.00
23122;DHT22;11730;51.248;22.534;2024-03-22T12:29:19;10.60;1.00
23122;DHT22;11730;51.248;22.534;2024-03-22T12:31:45;10.70;1.00
23122;DHT22;11730;51.248;22.534;2024-03-22T12:34:12;10.80;1.00
23122;DHT22;11730;51.248;22.534;2024-03-22T12:36:38;10.80;1.00
23122;DHT22;11730;51.248;22.534;2024-03-22T12:39:03;10.90;1.00
23122;DHT22;11730;51.248;22.534;2024-03-22T12:41:30;10.90;1.00
23122;DHT22;11730;51.248;22.534;2024-03-22T12:43:57;10.90;1.00
23122;DHT22;11730;51.248;22.534;2024-03-22T12:46:24;10.70;1.00
23122;DHT22;11730;51.248;22.534;2024-03-22T12:48:50;10.70;1.00
23122;DHT22;11730;51.248;22.534;2024-03-22T12:51:17;10.70;1.00
23122;DHT22;11730;51.248;22.534;2024-03-22T12:53:44;10.60;1.00
23122;DHT22;11730;51.248;22.534;2024-03-22T12:56:09;10.70;1.00
23122;DHT22;11730;51.248;22.534;2024-03-22T12:58:36;10.70;1.00
23122;DHT22;11730;51.248;22.534;2024-03-22T13:01:04;10.50;1.00
23122;DHT22;11730;51.248;22.534;2024-03-22T13:03:32;10.60;1.00
23122;DHT22;11730;51.248;22.534;2024-03-22T13:05:58;10.70;1.00
23122;DHT22;11730;51.248;22.534;2024-03-22T13:08:24;10.60;1.00
23122;DHT22;11730;51.248;22.534;2024-03-22T13:10:50;10.60;1.00
23122;DHT22;11730;51.248;22.534;2024-03-22T13:13:18;10.70;1.00
23122;DHT22;11730;51.248;22.534;2024-03-22T13:15:44;10.70;1.00
23122;DHT22;11730;51.248;22.534;2024-03-22T13:18:11;10.60;1.00
23122;DHT22;11730;51.248;22.534;2024-03-22T13:20:37;10.50;1.00
23122;DHT22;11730;51.248;22.534;2024-03-22T13:23:03;10.60;1.00
23122;DHT22;11730;51.248;22.534;2024-03-22T13:25:29;10.60;1.00
23122;DHT22;11730;51.248;22.534;2024-03-22T13:27:55;10.70;1.00
23122;DHT22;11730;51.248;22.534;2024-03-22T13:30:21;10.70;1.00
23122;DHT22;11730;51.248;22.534;2024-03-22T13:32:47;10.80;1.00
23122;DHT22;11730;51.248;22.534;2024-03-22T13:35:13;10.70;1.00
23122;DHT22;11730;51.248;22.534;2024-03-22T13:37:41;10.70;1.00
23122;DHT22;11730;51.248;22.534;2024-03-22T13:40:07;10.60;1.00
23122;DHT22;11730;51.248;22.534;2024-03-22T13:42:34;10.60;1.00
23122;DHT22;11730;51.248;22.534;2024-03-22T13:45:00;10.60;1.00
23122;DHT22;11730;51.248;22.534;2024-03-22T13:47:26;10.70;1.00
23122;DHT22;11730;51.248;22.534;2024-03-22T13:49:56;10.60;1.00
23122;DHT22;11730;51.248;22.534;2024-03-22T13:52:22;10.60;1.00
23122;DHT22;11730;51.248;22.534;2024-03-22T13:54:48;10.60;1.00
23122;DHT22;11730;51.248;22.534;2024-03-22T13:57:15;10.60;1.00
23122;DHT22;11730;51.248;22.534;2024-03-22T13:59:41;10.70;1.00
23122;DHT22;11730;51.248;22.534;2024-03-22T14:02:07;10.70;1.00
23122;DHT22;11730;51.248;22.534;2024-03-22T14:04:37;10.60;1.00
23122;DHT22;11730;51.248;22.534;2024-03-22T14:07:03;11.10;1.00
23122;DHT22;11730;51.248;22.534;2024-03-22T14:09:34;10.50;1.00
23122;DHT22;11730;51.248;22.534;2024-03-22T14:12:00;10.50;1.00
23122;DHT22;11730;51.248;22.534;2024-03-22T14:14:26;10.60;1.00
23122;DHT22;11730;51.248;22.534;2024-03-22T14:16:53;10.50;1.00
23122;DHT22;11730;51.248;22.534;2024-03-22T14:19:19;10.60;1.00
23122;DHT22;11730;51.248;22.534;2024-03-22T14:21:46;10.70;1.00
23122;DHT22;11730;51.248;22.534;2024-03-22T14:24:13;10.50;1.00
23122;DHT22;11730;51.248;22.534;2024-03-22T14:26:39;10.50;1.00
23122;DHT22;11730;51.248;22.534;2024-03-22T14:29:14;10.50;1.00
23122;DHT22;11730;51.248;22.534;2024-03-22T14:31:40;10.40;1.00
23122;DHT22;11730;51.248;22.534;2024-03-22T14:34:08;10.40;1.00
23122;DHT22;11730;51.248;22.534;2024-03-22T14:36:34;10.30;1.00
23122;DHT22;11730;51.248;22.534;2024-03-22T14:39:00;10.40;1.00
23122;DHT22;11730;51.248;22.534;2024-03-22T14:41:31;10.50;1.00
23122;DHT22;11730;51.248;22.534;2024-03-22T14:43:57;10.40;1.00
23122;DHT22;11730;51.248;22.534;2024-03-22T14:46:23;10.40;1.00
23122;DHT22;11730;51.248;22.534;2024-03-22T14:48:55;10.40;1.00
23122;DHT22;11730;51.248;22.534;2024-03-22T14:51:21;10.40;1.00
23122;DHT22;11730;51.248;22.534;2024-03-22T14:53:47;10.40;1.00
23122;DHT22;11730;51.248;22.534;2024-03-22T14:56:13;10.30;1.00
23122;DHT22;11730;51.248;22.534;2024-03-22T14:58:40;10.50;1.00
23122;DHT22;11730;51.248;22.534;2024-03-22T15:01:06;10.40;1.00
23122;DHT22;11730;51.248;22.534;2024-03-22T15:03:32;10.40;1.00
23122;DHT22;11730;51.248;22.534;2024-03-22T15:05:59;10.30;1.00
23122;DHT22;11730;51.248;22.534;2024-03-22T15:08:26;10.30;1.00
23122;DHT22;11730;51.248;22.534;2024-03-22T15:10:54;10.30;1.00
23122;DHT22;11730;51.248;22.534;2024-03-22T15:13:20;10.30;1.00
23122;DHT22;11730;51.248;22.534;2024-03-22T15:15:53;10.30;1.00
23122;DHT22;11730;51.248;22.534;2024-03-22T15:18:19;10.30;1.00
23122;DHT22;11730;51.248;22.534;2024-03-22T15:20:46;10.20;1.00
23122;DHT22;11730;51.248;22.534;2024-03-22T15:23:13;10.30;1.00
23122;DHT22;11730;51.248;22.534;2024-03-22T15:25:39;10.40;1.00
23122;DHT22;11730;51.248;22.534;2024-03-22T15:28:05;10.30;1.00
23122;DHT22;11730;51.248;22.534;2024-03-22T15:30:31;10.40;1.00
23122;DHT22;11730;51.248;22.534;2024-03-22T15:33:00;10.30;1.00
23122;DHT22;11730;51.248;22.534;2024-03-22T15:35:26;10.40;1.00
23122;DHT22;11730;51.248;22.534;2024-03-22T15:37:52;10.40;1.00
23122;DHT22;11730;51.248;22.534;2024-03-22T15:40:18;10.40;1.00
23122;DHT22;11730;51.248;22.534;2024-03-22T15:42:45;10.50;1.00
23122;DHT22;11730;51.248;22.534;2024-03-22T15:45:11;10.40;1.00
23122;DHT22;11730;51.248;22.534;2024-03-22T15:47:38;10.30;1.00
23122;DHT22;11730;51.248;22.534;2024-03-22T15:50:04;10.30;1.00
23122;DHT22;11730;51.248;22.534;2024-03-22T15:52:31;10.30;1.00
23122;DHT22;11730;51.248;22.534;2024-03-22T15:54:57;10.30;1.00
23122;DHT22;11730;51.248;22.534;2024-03-22T15:57:23;10.30;1.00
23122;DHT22;11730;51.248;22.534;2024-03-22T15:59:49;10.40;1.00
23122;DHT22;11730;51.248;22.534;2024-03-22T16:02:15;10.40;1.00
23122;DHT22;11730;51.248;22.534;2024-03-22T16:04:41;10.40;1.00
23122;DHT22;11730;51.248;22.534;2024-03-22T16:07:09;10.30;1.00
23122;DHT22;11730;51.248;22.534;2024-03-22T16:09:38;10.30;1.00
23122;DHT22;11730;51.248;22.534;2024-03-22T16:12:04;10.20;1.00
23122;DHT22;11730;51.248;22.534;2024-03-22T16:14:30;9.80;1.00
23122;DHT22;11730;51.248;22.534;2024-03-22T16:16:57;10.20;1.00
23122;DHT22;11730;51.248;22.534;2024-03-22T16:19:23;10.20;1.00
23122;DHT22;11730;51.248;22.534;2024-03-22T16:21:49;10.10;1.00
23122;DHT22;11730;51.248;22.534;2024-03-22T16:24:15;10.20;1.00
23122;DHT22;11730;51.248;22.534;2024-03-22T16:26:41;10.20;1.00
23122;DHT22;11730;51.248;22.534;2024-03-22T16:29:07;10.20;1.00
23122;DHT22;11730;51.248;22.534;2024-03-22T16:31:33;10.10;1.00
23122;DHT22;11730;51.248;22.534;2024-03-22T16:33:59;10.20;1.00
23122;DHT22;11730;51.248;22.534;2024-03-22T16:36:25;10.20;1.00
23122;DHT22;11730;51.248;22.534;2024-03-22T16:38:51;10.10;1.00
23122;DHT22;11730;51.248;22.534;2024-03-22T16:41:17;10.10;1.00
23122;DHT22;11730;51.248;22.534;2024-03-22T16:43:43;10.10;1.00
23122;DHT22;11730;51.248;22.534;2024-03-22T16:46:10;10.10;1.00
23122;DHT22;11730;51.248;22.534;2024-03-22T16:48:35;10.00;1.00
23122;DHT22;11730;51.248;22.534;2024-03-22T16:51:02;10.10;1.00
23122;DHT22;11730;51.248;22.534;2024-03-22T16:53:28;10.00;1.00
23122;DHT22;11730;51.248;22.534;2024-03-22T16:55:54;10.00;1.00
23122;DHT22;11730;51.248;22.534;2024-03-22T16:58:20;10.00;1.00
23122;DHT22;11730;51.248;22.534;2024-03-22T17:00:46;10.00;1.00
23122;DHT22;11730;51.248;22.534;2024-03-22T17:03:13;10.00;1.00
23122;DHT22;11730;51.248;22.534;2024-03-22T17:05:39;10.00;1.00
23122;DHT22;11730;51.248;22.534;2024-03-22T17:08:05;10.00;1.00
23122;DHT22;11730;51.248;22.534;2024-03-22T17:10:32;10.00;1.00
23122;DHT22;11730;51.248;22.534;2024-03-22T17:12:58;10.00;1.00
23122;DHT22;11730;51.248;22.534;2024-03-22T17:15:24;10.00;1.00
23122;DHT22;11730;51.248;22.534;2024-03-22T17:17:50;10.00;1.00
23122;DHT22;11730;51.248;22.534;2024-03-22T17:20:16;10.00;1.00
23122;DHT22;11730;51.248;22.534;2024-03-22T17:22:44;9.90;1.00
23122;DHT22;11730;51.248;22.534;2024-03-22T17:25:13;9.90;1.00
23122;DHT22;11730;51.248;22.534;2024-03-22T17:27:39;9.90;1.00
23122;DHT22;11730;51.248;22.534;2024-03-22T17:30:07;9.90;1.00
23122;DHT22;11730;51.248;22.534;2024-03-22T17:32:33;9.90;1.00
23122;DHT22;11730;51.248;22.534;2024-03-22T17:34:59;9.80;1.00
23122;DHT22;11730;51.248;22.534;2024-03-22T17:37:25;9.80;1.00
23122;DHT22;11730;51.248;22.534;2024-03-22T17:39:51;9.90;1.00
23122;DHT22;11730;51.248;22.534;2024-03-22T17:42:17;9.90;1.00
23122;DHT22;11730;51.248;22.534;2024-03-22T17:44:43;9.80;1.00
23122;DHT22;11730;51.248;22.534;2024-03-22T17:47:09;9.90;1.00
23122;DHT22;11730;51.248;22.534;2024-03-22T17:49:36;9.80;1.00
23122;DHT22;11730;51.248;22.534;2024-03-22T17:52:01;9.80;1.00
23122;DHT22;11730;51.248;22.534;2024-03-22T17:54:27;9.70;1.00
23122;DHT22;11730;51.248;22.534;2024-03-22T17:56:53;9.70;1.00
23122;DHT22;11730;51.248;22.534;2024-03-22T17:59:19;9.70;1.00
23122;DHT22;11730;51.248;22.534;2024-03-22T18:01:46;9.60;1.00
23122;DHT22;11730;51.248;22.534;2024-03-22T18:04:14;9.70;1.00
23122;DHT22;11730;51.248;22.534;2024-03-22T18:06:40;9.70;1.00
23122;DHT22;11730;51.248;22.534;2024-03-22T18:09:06;9.60;1.00
23122;DHT22;11730;51.248;22.534;2024-03-22T18:11:39;9.60;1.00
23122;DHT22;11730;51.248;22.534;2024-03-22T18:14:05;9.60;1.00
23122;DHT22;11730;51.248;22.534;2024-03-22T18:16:31;9.60;1.00
23122;DHT22;11730;51.248;22.534;2024-03-22T18:18:58;9.60;1.00
23122;DHT22;11730;51.248;22.534;2024-03-22T18:21:24;9.60;1.00
23122;DHT22;11730;51.248;22.534;2024-03-22T18:23:52;9.70;1.00
23122;DHT22;11730;51.248;22.534;2024-03-22T18:26:19;9.60;1.00
23122;DHT22;11730;51.248;22.534;2024-03-22T18:28:45;9.70;1.00
23122;DHT22;11730;51.248;22.534;2024-03-22T18:31:12;9.60;1.00
23122;DHT22;11730;51.248;22.534;2024-03-22T18:33:38;9.60;1.00
23122;DHT22;11730;51.248;22.534;2024-03-22T18:36:05;9.60;1.00
23122;DHT22;11730;51.248;22.534;2024-03-22T18:38:31;9.70;1.00
23122;DHT22;11730;51.248;22.534;2024-03-22T18:40:59;9.70;1.00
23122;DHT22;11730;51.248;22.534;2024-03-22T18:43:25;9.60;1.00
23122;DHT22;11730;51.248;22.534;2024-03-22T18:45:51;9.60;1.00
23122;DHT22;11730;51.248;22.534;2024-03-22T18:48:17;9.70;1.00
23122;DHT22;11730;51.248;22.534;2024-03-22T18:50:43;9.80;1.00
23122;DHT22;11730;51.248;22.534;2024-03-22T18:53:11;9.70;1.00
23122;DHT22;11730;51.248;22.534;2024-03-22T18:55:37;9.70;1.00
23122;DHT22;11730;51.248;22.534;2024-03-22T18:58:03;9.70;1.00
23122;DHT22;11730;51.248;22.534;2024-03-22T19:00:29;9.70;1.00
23122;DHT22;11730;51.248;22.534;2024-03-22T19:02:55;9.70;1.00
23122;DHT22;11730;51.248;22.534;2024-03-22T19:05:23;9.60;1.00
23122;DHT22;11730;51.248;22.534;2024-03-22T19:07:49;9.60;1.00
23122;DHT22;11730;51.248;22.534;2024-03-22T19:10:16;9.60;1.00
23122;DHT22;11730;51.248;22.534;2024-03-22T19:12:42;9.60;1.00
23122;DHT22;11730;51.248;22.534;2024-03-22T19:15:09;9.60;1.00
23122;DHT22;11730;51.248;22.534;2024-03-22T19:17:35;9.50;1.00
23122;DHT22;11730;51.248;22.534;2024-03-22T19:20:01;9.50;1.00
23122;DHT22;11730;51.248;22.534;2024-03-22T19:22:27;9.60;1.00
23122;DHT22;11730;51.248;22.534;2024-03-22T19:24:53;9.70;1.00
23122;DHT22;11730;51.248;22.534;2024-03-22T19:27:19;9.70;1.00
23122;DHT22;11730;51.248;22.534;2024-03-22T19:29:45;9.90;1.00
23122;DHT22;11730;51.248;22.534;2024-03-22T19:32:11;9.70;1.00
23122;DHT22;11730;51.248;22.534;2024-03-22T19:34:37;9.70;1.00
23122;DHT22;11730;51.248;22.534;2024-03-22T19:37:04;9.80;1.00
23122;DHT22;11730;51.248;22.534;2024-03-22T19:39:35;9.80;1.00
23122;DHT22;11730;51.248;22.534;2024-03-22T19:42:01;9.70;1.00
23122;DHT22;11730;51.248;22.534;2024-03-22T19:44:28;9.80;1.00
23122;DHT22;11730;51.248;22.534;2024-03-22T19:46:54;9.80;1.00
23122;DHT22;11730;51.248;22.534;2024-03-22T19:49:20;9.60;1.00
23122;DHT22;11730;51.248;22.534;2024-03-22T19:51:47;9.60;1.00
23122;DHT22;11730;51.248;22.534;2024-03-22T19:54:13;9.50;1.00
23122;DHT22;11730;51.248;22.534;2024-03-22T19:56:39;9.60;1.00
23122;DHT22;11730;51.248;22.534;2024-03-22T19:59:05;9.60;1.00
23122;DHT22;11730;51.248;22.534;2024-03-22T20:01:31;9.50;1.00
23122;DHT22;11730;51.248;22.534;2024-03-22T20:03:59;9.50;1.00
23122;DHT22;11730;51.248;22.534;2024-03-22T20:06:26;9.60;1.00
23122;DHT22;11730;51.248;22.534;2024-03-22T20:08:52;9.70;1.00
23122;DHT22;11730;51.248;22.534;2024-03-22T20:11:18;9.50;1.00
23122;DHT22;11730;51.248;22.534;2024-03-22T20:13:43;9.50;1.00
23122;DHT22;11730;51.248;22.534;2024-03-22T20:16:11;9.50;1.00
23122;DHT22;11730;51.248;22.534;2024-03-22T20:18:37;9.50;1.00
23122;DHT22;11730;51.248;22.534;2024-03-22T20:21:03;9.40;1.00
23122;DHT22;11730;51.248;22.534;2024-03-22T20:23:29;9.40;1.00
23122;DHT22;11730;51.248;22.534;2024-03-22T20:25:55;9.40;1.00